Terminal Aerodrome Forecast
Issued by NWS

Home | Current Version | Previous Version | Graphics & Text | Print | Product List | Glossary On
Versions: 1 2 3 4 5 6 7 8 9 10 11 12 13 14 15 16 17 18 19 20 21 22 23 24 25 26 27
000
FTUS43 KTOP 251800 AAA
TAFMHK
TAF AMD
KMHK 251835Z 2519/2618 18012G22KT P6SM BKN028 OVC035
     FM252200 19011KT P6SM VCTS SCT020 OVC030CB
     FM260300 20008KT P6SM FEW040 SCT080=

USA.gov is the U.S. government's official web portal to all federal, state and local government web resources and services.